createdAt,value
2023-05-14T00:02:19.671Z,27.80
2023-05-14T00:05:22.721Z,25.77
2023-05-14T00:08:25.493Z,27.95
2023-05-14T00:11:28.093Z,23.90
2023-05-14T00:14:32.999Z,22.42
2023-05-14T00:17:35.670Z,25.60
2023-05-14T00:20:38.383Z,23.60
2023-05-14T00:23:40.999Z,24.45
2023-05-14T00:26:43.634Z,23.38
2023-05-14T00:29:46.170Z,24.10
2023-05-14T00:32:48.774Z,22.90
2023-05-14T00:35:51.784Z,21.20
2023-05-14T00:38:54.372Z,23.50
2023-05-14T00:41:57.002Z,25.17
2023-05-14T00:44:59.556Z,24.52
2023-05-14T00:48:02.272Z,23.97
2023-05-14T00:51:05.256Z,20.17
2023-05-14T00:54:08.408Z,23.33
2023-05-14T00:57:11.036Z,23.50
2023-05-14T01:00:14.101Z,21.13
2023-05-14T01:03:19.582Z,19.87
2023-05-14T01:06:48.595Z,19.43
2023-05-14T01:10:13.905Z,20.33
2023-05-14T01:13:30.297Z,17.60
2023-05-14T01:16:34.338Z,17.77
2023-05-14T01:19:43.928Z,18.43
2023-05-14T01:22:47.566Z,18.33
2023-05-14T01:25:53.233Z,18.83
2023-05-14T01:28:56.401Z,17.63
2023-05-14T01:32:03.527Z,16.77
2023-05-14T01:35:08.150Z,18.37
2023-05-14T01:38:12.554Z,18.63
2023-05-14T01:41:16.013Z,16.65
2023-05-14T01:44:18.873Z,16.92
2023-05-14T01:47:21.540Z,18.08
2023-05-14T01:50:24.699Z,17.17
2023-05-14T01:53:27.471Z,16.77
2023-05-14T01:56:30.081Z,18.30
2023-05-14T01:59:32.848Z,16.17
2023-05-14T02:02:35.711Z,17.83
2023-05-14T02:05:38.361Z,15.20
2023-05-14T02:08:40.976Z,15.63
2023-05-14T02:11:48.490Z,15.63
2023-05-14T02:14:51.257Z,17.55
2023-05-14T02:17:56.656Z,18.25
2023-05-14T02:20:59.428Z,16.10
2023-05-14T02:24:02.085Z,16.70
2023-05-14T02:27:05.162Z,18.45
2023-05-14T02:30:11.851Z,17.17
2023-05-14T02:33:15.236Z,16.95
2023-05-14T02:36:18.043Z,18.80
2023-05-14T02:39:20.645Z,15.60
2023-05-14T02:42:23.197Z,17.40
2023-05-14T02:45:26.044Z,16.00
2023-05-14T02:48:31.480Z,15.20
2023-05-14T02:51:37.009Z,15.37
2023-05-14T02:54:39.728Z,16.57
2023-05-14T02:57:42.349Z,15.52
2023-05-14T03:00:45.193Z,15.75
2023-05-14T03:03:50.807Z,16.17
2023-05-14T03:06:53.888Z,16.40
2023-05-14T03:09:56.572Z,14.80
2023-05-14T03:12:59.285Z,15.48
2023-05-14T03:16:01.842Z,16.50
2023-05-14T03:19:05.475Z,16.15
2023-05-14T03:22:08.101Z,18.03
2023-05-14T03:25:10.744Z,16.67
2023-05-14T03:28:15.829Z,19.40
2023-05-14T03:31:19.122Z,18.20
2023-05-14T03:34:22.124Z,16.25
2023-05-14T03:37:24.635Z,17.20
2023-05-14T03:40:27.205Z,15.90
2023-05-14T03:43:29.823Z,18.38
2023-05-14T03:46:35.968Z,16.23
2023-05-14T03:49:40.777Z,17.02
2023-05-14T03:52:46.142Z,19.40
2023-05-14T03:55:48.712Z,17.70
2023-05-14T03:58:53.268Z,20.05
2023-05-14T04:01:55.941Z,18.08
2023-05-14T04:04:58.596Z,17.60
2023-05-14T04:08:01.757Z,17.50
2023-05-14T04:11:04.962Z,18.10
2023-05-14T04:14:10.186Z,18.75
2023-05-14T04:17:14.857Z,18.73
2023-05-14T04:20:17.912Z,20.27
2023-05-14T04:23:23.095Z,18.17
2023-05-14T04:26:25.801Z,18.37
2023-05-14T04:29:29.060Z,18.80
2023-05-14T04:32:31.791Z,16.70
2023-05-14T04:35:34.356Z,17.48
2023-05-14T04:38:36.900Z,17.10
2023-05-14T04:41:39.514Z,18.00
2023-05-14T04:44:42.099Z,17.88
2023-05-14T04:47:45.204Z,19.42
2023-05-14T04:50:48.045Z,17.50
2023-05-14T04:53:50.749Z,20.60
2023-05-14T04:56:55.222Z,17.33
2023-05-14T04:59:57.804Z,19.33
2023-05-14T05:03:00.626Z,21.77
2023-05-14T05:06:03.587Z,18.98
2023-05-14T05:09:06.141Z,20.30
2023-05-14T05:12:09.150Z,21.30
2023-05-14T05:15:11.864Z,18.40
2023-05-14T05:18:14.538Z,23.58
2023-05-14T05:21:17.144Z,18.85
2023-05-14T05:24:19.706Z,20.40
2023-05-14T05:27:22.777Z,17.43
2023-05-14T05:30:25.514Z,19.77
2023-05-14T05:33:28.444Z,16.60
2023-05-14T05:36:31.786Z,16.52
2023-05-14T05:39:35.209Z,18.10
2023-05-14T05:42:37.993Z,16.90
2023-05-14T05:45:41.039Z,15.45
2023-05-14T05:48:43.625Z,20.45
2023-05-14T05:51:46.270Z,21.08
2023-05-14T05:54:48.917Z,25.50
2023-05-14T05:57:51.706Z,30.77
2023-05-14T06:00:55.176Z,29.60
2023-05-14T06:03:57.774Z,29.75
2023-05-14T06:07:00.449Z,24.52
2023-05-14T06:10:03.614Z,26.87
2023-05-14T06:13:06.968Z,23.80
2023-05-14T06:16:10.140Z,24.17
2023-05-14T06:19:12.944Z,22.83
2023-05-14T06:22:15.668Z,24.33
2023-05-14T06:25:18.611Z,24.50
2023-05-14T06:28:21.162Z,25.10
2023-05-14T06:31:23.836Z,24.38
2023-05-14T06:34:26.460Z,21.92
2023-05-14T06:37:29.072Z,23.48
2023-05-14T06:40:32.083Z,22.23
2023-05-14T06:43:34.740Z,27.57
2023-05-14T06:46:37.417Z,25.25
2023-05-14T06:49:40.040Z,22.25
2023-05-14T06:52:44.044Z,22.88
2023-05-14T06:55:48.317Z,22.93
2023-05-14T06:58:51.246Z,22.13
2023-05-14T07:01:53.862Z,18.02
2023-05-14T07:04:56.485Z,19.58
2023-05-14T07:07:59.105Z,17.05
2023-05-14T07:11:01.865Z,18.93
2023-05-14T07:14:04.522Z,23.37
2023-05-14T07:17:07.252Z,25.17
2023-05-14T07:20:10.402Z,21.60
2023-05-14T07:23:13.055Z,23.88
2023-05-14T07:26:15.731Z,24.47
2023-05-14T07:29:18.347Z,26.90
2023-05-14T07:32:21.040Z,23.35
2023-05-14T07:35:23.735Z,21.35
2023-05-14T07:38:26.419Z,20.95
2023-05-14T07:41:29.112Z,18.23
2023-05-14T07:44:31.816Z,19.07
2023-05-14T07:47:34.620Z,20.85
2023-05-14T07:50:38.157Z,21.85
2023-05-14T07:53:41.317Z,17.60
2023-05-14T07:56:45.208Z,19.50
2023-05-14T07:59:48.600Z,16.87
2023-05-14T08:02:51.994Z,17.90
2023-05-14T08:05:54.650Z,15.52
2023-05-14T08:08:57.206Z,16.90
2023-05-14T08:11:59.974Z,16.10
2023-05-14T08:15:02.956Z,19.00
2023-05-14T08:18:05.715Z,20.95
2023-05-14T08:21:08.334Z,19.63
2023-05-14T08:24:11.526Z,21.88
2023-05-14T08:27:14.217Z,20.43
2023-05-14T08:30:17.976Z,19.23
2023-05-14T08:33:20.727Z,20.38
2023-05-14T08:36:23.336Z,20.00
2023-05-14T08:39:26.051Z,19.77
2023-05-14T08:42:29.239Z,21.17
2023-05-14T08:45:34.321Z,21.33
2023-05-14T08:48:38.034Z,18.25
2023-05-14T08:51:41.179Z,14.63
2023-05-14T08:54:44.836Z,14.05
2023-05-14T08:57:50.478Z,17.30
2023-05-14T09:00:54.272Z,13.97
2023-05-14T09:03:57.219Z,12.30
2023-05-14T09:07:01.585Z,13.80
2023-05-14T09:10:04.914Z,13.48
2023-05-14T09:13:07.810Z,16.10
2023-05-14T09:16:10.611Z,15.40
2023-05-14T09:19:14.043Z,18.05
2023-05-14T09:22:19.867Z,15.32
2023-05-14T09:25:27.720Z,15.75
2023-05-14T09:28:31.039Z,15.53
2023-05-14T09:31:33.937Z,16.77
2023-05-14T09:34:39.267Z,13.68
2023-05-14T09:37:43.913Z,14.02
2023-05-14T09:40:46.680Z,14.00
2023-05-14T09:43:50.707Z,13.07
2023-05-14T09:46:54.637Z,15.37
2023-05-14T09:49:57.361Z,14.82
2023-05-14T09:53:00.237Z,13.57
2023-05-14T09:56:02.887Z,13.48
2023-05-14T09:59:06.083Z,14.43
2023-05-14T10:02:16.287Z,16.63
2023-05-14T10:05:20.668Z,12.23
2023-05-14T10:08:39.184Z,14.00
2023-05-14T10:11:47.187Z,16.52
2023-05-14T10:14:53.789Z,15.57
2023-05-14T10:17:59.055Z,14.43
2023-05-14T10:21:06.456Z,16.92
2023-05-14T10:24:10.038Z,15.23
2023-05-14T10:27:12.758Z,18.10
2023-05-14T10:30:18.626Z,14.73
2023-05-14T10:33:21.409Z,16.00
2023-05-14T10:36:24.055Z,18.08
2023-05-14T10:39:47.614Z,17.23
2023-05-14T10:42:50.165Z,16.50
2023-05-14T10:45:52.761Z,15.87
2023-05-14T10:48:56.838Z,18.17
2023-05-14T10:51:59.476Z,19.70
2023-05-14T10:55:04.085Z,23.77
2023-05-14T10:58:07.866Z,17.77
2023-05-14T11:01:12.226Z,20.03
2023-05-14T11:04:24.759Z,17.37
2023-05-14T11:07:32.908Z,20.23
2023-05-14T11:10:35.759Z,23.48
2023-05-14T11:13:38.586Z,26.00
2023-05-14T11:16:41.561Z,26.93
2023-05-14T11:19:48.851Z,31.47
2023-05-14T11:22:53.037Z,29.65
2023-05-14T11:25:56.889Z,33.53
2023-05-14T11:29:00.210Z,27.75
2023-05-14T11:32:06.043Z,23.90
2023-05-14T11:35:09.012Z,26.03
2023-05-14T11:38:16.831Z,18.42
2023-05-14T11:41:21.683Z,24.08
2023-05-14T11:44:24.572Z,25.50
2023-05-14T11:47:29.589Z,21.80
2023-05-14T11:50:36.769Z,22.23
2023-05-14T11:53:39.410Z,25.77
2023-05-14T11:56:42.093Z,23.65
2023-05-14T11:59:44.784Z,23.98
2023-05-14T12:02:49.522Z,23.33
2023-05-14T12:05:59.610Z,25.40
2023-05-14T12:09:04.838Z,25.50
2023-05-14T12:12:12.235Z,21.65
2023-05-14T12:15:16.539Z,19.58
2023-05-14T12:18:24.564Z,21.27
2023-05-14T12:21:29.186Z,20.20
2023-05-14T12:24:31.850Z,19.98
2023-05-14T12:27:37.842Z,20.52
2023-05-14T12:30:40.547Z,24.00
2023-05-14T12:33:43.267Z,23.30
2023-05-14T12:36:45.884Z,21.67
2023-05-14T12:39:48.525Z,25.10
2023-05-14T12:42:51.140Z,26.70
2023-05-14T12:45:53.819Z,21.13
2023-05-14T12:48:57.275Z,24.05
2023-05-14T12:52:17.337Z,20.77
2023-05-14T12:55:22.454Z,21.58
2023-05-14T12:58:25.167Z,16.20
2023-05-14T13:01:27.839Z,20.23
2023-05-14T13:04:30.551Z,19.73
2023-05-14T13:07:33.341Z,18.60
2023-05-14T13:10:36.327Z,19.10
2023-05-14T13:13:39.013Z,14.98
2023-05-14T13:16:41.609Z,16.45
2023-05-14T13:19:44.146Z,17.30
2023-05-14T13:22:46.787Z,22.20
2023-05-14T13:25:50.072Z,20.63
2023-05-14T13:28:52.942Z,14.27
2023-05-14T13:31:55.546Z,13.63
2023-05-14T13:34:58.127Z,12.07
2023-05-14T13:38:00.800Z,9.87
2023-05-14T13:41:04.013Z,10.15
2023-05-14T13:44:06.571Z,12.27
2023-05-14T13:47:09.214Z,12.30
2023-05-14T13:50:11.796Z,17.88
2023-05-14T13:53:14.328Z,17.27
2023-05-14T13:56:16.982Z,14.60
2023-05-14T13:59:20.695Z,13.10
2023-05-14T14:02:23.390Z,16.00
2023-05-14T14:05:28.604Z,13.63
2023-05-14T14:08:31.456Z,15.57
2023-05-14T14:11:34.151Z,16.17
2023-05-14T14:14:36.707Z,16.65
2023-05-14T14:17:41.835Z,15.95
2023-05-14T14:20:44.647Z,17.60
2023-05-14T14:23:47.701Z,14.87
2023-05-14T14:26:50.426Z,15.50
2023-05-14T14:29:53.346Z,12.27
2023-05-14T14:32:56.065Z,12.35
2023-05-14T14:35:58.737Z,10.73
2023-05-14T14:39:01.316Z,11.67
2023-05-14T14:42:04.286Z,13.80
2023-05-14T14:45:07.755Z,16.00
2023-05-14T14:48:31.978Z,18.70
2023-05-14T14:51:34.690Z,17.33
2023-05-14T14:54:37.371Z,18.03
2023-05-14T14:57:39.959Z,17.15
2023-05-14T15:00:43.293Z,17.00
2023-05-14T15:03:48.246Z,15.90
2023-05-14T15:06:50.927Z,16.27
2023-05-14T15:09:53.574Z,18.30
2023-05-14T15:12:58.973Z,14.77
2023-05-14T15:16:01.515Z,15.88
2023-05-14T15:19:04.183Z,14.77
2023-05-14T15:22:07.042Z,16.70
2023-05-14T15:25:11.028Z,17.40
2023-05-14T15:28:13.647Z,17.33
2023-05-14T15:31:16.592Z,15.27
2023-05-14T15:34:19.157Z,15.95
2023-05-14T15:37:23.762Z,15.10
2023-05-14T15:40:27.645Z,15.07
2023-05-14T15:43:30.563Z,15.25
2023-05-14T15:46:33.414Z,12.65
2023-05-14T15:49:36.095Z,12.70
2023-05-14T15:52:39.507Z,16.77
2023-05-14T15:55:45.116Z,17.67
2023-05-14T15:58:47.773Z,14.82
2023-05-14T16:01:51.130Z,15.20
2023-05-14T16:04:53.766Z,19.13
2023-05-14T16:07:56.464Z,17.73
2023-05-14T16:11:01.587Z,17.73
2023-05-14T16:14:09.937Z,15.75
2023-05-14T16:17:13.213Z,15.48
2023-05-14T16:20:18.655Z,15.73
2023-05-14T16:23:27.463Z,19.05
2023-05-14T16:26:30.819Z,13.60
2023-05-14T16:29:36.169Z,16.20
2023-05-14T16:32:41.780Z,13.82
2023-05-14T16:35:45.510Z,16.25
2023-05-14T16:39:06.150Z,18.10
2023-05-14T16:42:10.830Z,15.60
2023-05-14T16:45:13.436Z,16.67
2023-05-14T16:48:16.020Z,21.25
2023-05-14T16:51:22.352Z,18.75
2023-05-14T16:54:28.032Z,16.58
2023-05-14T16:57:34.394Z,16.00
2023-05-14T17:00:41.427Z,16.95
2023-05-14T17:03:45.710Z,13.02
2023-05-14T17:06:48.474Z,17.38
2023-05-14T17:09:51.359Z,16.17
2023-05-14T17:12:59.439Z,15.20
2023-05-14T17:16:02.283Z,17.50
2023-05-14T17:19:05.696Z,15.30
2023-05-14T17:22:08.636Z,17.98
2023-05-14T17:25:11.222Z,19.38
2023-05-14T17:28:18.926Z,19.07
2023-05-14T17:31:22.357Z,18.77
2023-05-14T17:34:24.949Z,18.05
2023-05-14T17:37:28.819Z,17.25
2023-05-14T17:40:31.685Z,21.42
2023-05-14T17:43:37.323Z,18.47
2023-05-14T17:46:40.133Z,17.55
2023-05-14T17:49:42.718Z,19.88
2023-05-14T17:52:46.241Z,16.38
2023-05-14T17:55:50.191Z,16.83
2023-05-14T17:58:52.768Z,17.23
2023-05-14T18:01:55.487Z,21.08
2023-05-14T18:04:58.268Z,21.42
2023-05-14T18:08:01.148Z,26.02
2023-05-14T18:11:04.067Z,24.85
2023-05-14T18:14:06.704Z,19.80
2023-05-14T18:17:09.488Z,15.70
2023-05-14T18:20:12.444Z,18.17
2023-05-14T18:23:15.180Z,14.65
2023-05-14T18:26:17.977Z,16.20
2023-05-14T18:29:20.783Z,14.33
2023-05-14T18:32:23.400Z,17.00
2023-05-14T18:35:26.615Z,16.30
2023-05-14T18:38:29.459Z,15.27
2023-05-14T18:41:32.118Z,16.60
2023-05-14T18:44:34.901Z,15.90
2023-05-14T18:47:38.108Z,17.02
2023-05-14T18:50:40.904Z,16.65
2023-05-14T18:53:43.695Z,16.80
2023-05-14T18:56:47.614Z,16.10
2023-05-14T18:59:50.459Z,17.90
2023-05-14T19:02:53.137Z,17.35
2023-05-14T19:05:56.113Z,18.60
2023-05-14T19:08:59.135Z,16.90
2023-05-14T19:12:02.022Z,15.45
2023-05-14T19:15:05.685Z,15.40
2023-05-14T19:18:08.607Z,17.80
2023-05-14T19:21:11.377Z,21.00
2023-05-14T19:24:14.268Z,18.17
2023-05-14T19:27:17.574Z,16.65
2023-05-14T19:30:21.208Z,16.07
2023-05-14T19:33:23.980Z,16.42
2023-05-14T19:36:26.631Z,16.52
2023-05-14T19:39:29.335Z,18.13
2023-05-14T19:42:31.987Z,16.38
2023-05-14T19:45:39.368Z,14.67
2023-05-14T19:48:42.380Z,15.57
2023-05-14T19:51:45.108Z,17.48
2023-05-14T19:54:47.711Z,15.40
2023-05-14T19:57:50.873Z,16.35
2023-05-14T20:00:56.784Z,16.13
2023-05-14T20:03:59.553Z,13.80
2023-05-14T20:07:02.965Z,14.63
2023-05-14T20:10:05.802Z,14.73
2023-05-14T20:13:08.653Z,16.80
2023-05-14T20:16:11.866Z,18.90
2023-05-14T20:19:14.808Z,19.85
2023-05-14T20:22:17.594Z,15.07
2023-05-14T20:25:20.186Z,15.70
2023-05-14T20:28:22.927Z,17.63
2023-05-14T20:31:25.753Z,18.27
2023-05-14T20:34:28.396Z,17.48
2023-05-14T20:37:32.756Z,18.13
2023-05-14T20:40:35.489Z,16.95
2023-05-14T20:43:38.199Z,16.45
2023-05-14T20:46:41.147Z,19.07
2023-05-14T20:49:43.855Z,20.35
2023-05-14T20:52:46.606Z,21.00
2023-05-14T20:55:49.356Z,19.27
2023-05-14T20:58:52.089Z,20.42
2023-05-14T21:01:54.710Z,21.17
2023-05-14T21:04:57.364Z,23.40
2023-05-14T21:08:00.059Z,23.58
2023-05-14T21:11:02.646Z,22.88
2023-05-14T21:14:05.328Z,23.58
2023-05-14T21:17:07.976Z,23.53
2023-05-14T21:20:13.553Z,21.77
2023-05-14T21:23:16.248Z,23.80
2023-05-14T21:26:22.435Z,24.35
2023-05-14T21:29:25.320Z,24.02
2023-05-14T21:32:28.065Z,26.60
2023-05-14T21:35:30.953Z,27.38
2023-05-14T21:38:34.168Z,33.97
2023-05-14T21:41:36.778Z,37.25
2023-05-14T21:44:39.342Z,28.75
2023-05-14T21:47:42.128Z,28.40
2023-05-14T21:50:44.985Z,30.52
2023-05-14T21:53:48.571Z,29.83
2023-05-14T21:56:51.261Z,34.38
2023-05-14T21:59:54.108Z,32.55
2023-05-14T22:02:56.740Z,29.07
2023-05-14T22:05:59.329Z,29.52
2023-05-14T22:09:02.051Z,26.73
2023-05-14T22:12:05.168Z,27.17
2023-05-14T22:15:08.664Z,28.35
2023-05-14T22:18:12.869Z,31.03
2023-05-14T22:21:15.841Z,27.67
2023-05-14T22:24:18.517Z,30.30
2023-05-14T22:27:21.197Z,33.78
2023-05-14T22:30:23.941Z,31.35
2023-05-14T22:33:26.690Z,32.60
2023-05-14T22:36:29.412Z,33.42
2023-05-14T22:39:32.018Z,35.70
2023-05-14T22:42:34.562Z,31.23
2023-05-14T22:45:37.309Z,32.90
2023-05-14T22:48:40.000Z,30.40
2023-05-14T22:51:42.725Z,27.90
2023-05-14T22:54:46.735Z,26.35
2023-05-14T22:57:49.456Z,24.90
2023-05-14T23:00:52.345Z,25.38
2023-05-14T23:03:55.078Z,24.17
2023-05-14T23:06:58.305Z,28.58
2023-05-14T23:10:00.925Z,24.25
2023-05-14T23:13:04.467Z,27.83
2023-05-14T23:16:07.231Z,25.88
2023-05-14T23:19:10.166Z,26.23
2023-05-14T23:22:12.948Z,25.52
2023-05-14T23:25:15.737Z,25.23
2023-05-14T23:28:18.608Z,26.00
2023-05-14T23:31:21.546Z,23.30
2023-05-14T23:34:24.459Z,24.13
2023-05-14T23:37:27.088Z,21.85
2023-05-14T23:40:29.693Z,23.55
2023-05-14T23:43:33.885Z,21.25
2023-05-14T23:46:36.582Z,21.55
2023-05-14T23:49:40.902Z,19.90
2023-05-14T23:52:43.788Z,21.05
2023-05-14T23:55:46.428Z,20.42
2023-05-14T23:58:49.267Z,19.42
